Time;durP1;ratioP1;P1;durP2;ratioP2;P2;SDS_P1;SDS_P2;PMS_P1;PMS_P2;Temp;Humidity;BMP_temperature;BMP_pressure;BME280_temperature;BME280_humidity;BME280_pressure;Samples;Min_cycle;Max_cycle;Signal;HPM_P1;HPM_P2
2022/04/09 00:00:21;;;;;;;5.60;2.17;;;;;;;;;;5125179;27;20027;-75
2022/04/09 00:02:46;;;;;;;6.18;2.53;;;;;;;;;;5130501;27;20035;-76
2022/04/09 00:05:12;;;;;;;10.20;2.83;;;;;;;;;;5126766;27;20391;-76
2022/04/09 00:07:38;;;;;;;7.13;2.40;;;;;;;;;;5126046;27;20022;-75
2022/04/09 00:10:05;;;;;;;10.10;3.05;;;;;;;;;;5131633;27;20015;-75
2022/04/09 00:12:30;;;;;;;12.57;3.05;;;;;;;;;;5113151;27;20550;-76
2022/04/09 00:14:55;;;;;;;11.80;2.70;;;;;;;;;;5110976;28;20044;-76
2022/04/09 00:17:21;;;;;;;6.78;2.38;;;;;;;;;;5111214;28;20031;-76
2022/04/09 00:19:46;;;;;;;9.00;2.50;;;;;;;;;;5110198;28;20353;-76
2022/04/09 00:22:11;;;;;;;7.37;2.27;;;;;;;;;;5111216;28;20038;-76
2022/04/09 00:24:37;;;;;;;7.97;2.45;;;;;;;;;;5127233;28;20346;-75
2022/04/09 00:27:02;;;;;;;6.32;2.28;;;;;;;;;;5131236;28;20396;-75
2022/04/09 00:29:27;;;;;;;6.68;2.47;;;;;;;;;;5131360;28;20118;-74
2022/04/09 00:31:52;;;;;;;8.23;2.58;;;;;;;;;;5131271;28;20520;-75
2022/04/09 00:34:18;;;;;;;5.32;2.22;;;;;;;;;;5131439;27;20023;-75
2022/04/09 00:36:43;;;;;;;11.38;3.22;;;;;;;;;;5131478;28;20047;-76
2022/04/09 00:39:08;;;;;;;3.67;2.03;;;;;;;;;;5131350;28;20015;-75
2022/04/09 00:41:33;;;;;;;7.40;2.53;;;;;;;;;;5131031;28;20294;-79
2022/04/09 00:43:58;;;;;;;7.38;2.50;;;;;;;;;;5133792;27;20270;-76
2022/04/09 00:46:24;;;;;;;5.43;2.00;;;;;;;;;;5134188;27;20019;-76
2022/04/09 00:48:49;;;;;;;8.45;2.33;;;;;;;;;;5134080;27;20704;-75
2022/04/09 00:51:14;;;;;;;5.20;2.47;;;;;;;;;;5135844;27;20015;-76
2022/04/09 00:53:41;;;;;;;12.50;2.95;;;;;;;;;;5135269;27;20072;-73
2022/04/09 00:56:16;;;;;;;7.93;2.50;;;;;;;;;;5135013;27;20480;-75
2022/04/09 00:58:54;;;;;;;7.82;2.70;;;;;;;;;;5133977;27;20071;-76
2022/04/09 01:01:20;;;;;;;6.97;2.35;;;;;;;;;;5115827;27;20047;-75
2022/04/09 01:03:46;;;;;;;12.23;3.22;;;;;;;;;;5116146;28;20027;-75
2022/04/09 01:06:12;;;;;;;11.13;2.40;;;;;;;;;;5114599;28;20425;-74
2022/04/09 01:08:37;;;;;;;13.32;3.10;;;;;;;;;;5114806;28;20031;-76
2022/04/09 01:11:03;;;;;;;7.22;2.50;;;;;;;;;;5120680;27;20152;-76
2022/04/09 01:13:29;;;;;;;5.38;2.78;;;;;;;;;;5143236;27;20019;-76
2022/04/09 01:15:54;;;;;;;7.07;2.72;;;;;;;;;;5150773;27;20733;-75
2022/04/09 01:18:20;;;;;;;5.97;2.10;;;;;;;;;;5135327;27;20094;-76
2022/04/09 01:20:45;;;;;;;6.30;2.60;;;;;;;;;;5135224;27;20035;-76
2022/04/09 01:23:10;;;;;;;10.52;3.08;;;;;;;;;;5135045;27;20023;-74
2022/04/09 01:25:37;;;;;;;7.20;3.07;;;;;;;;;;5134842;27;20383;-75
2022/04/09 01:28:03;;;;;;;11.57;2.78;;;;;;;;;;5134581;27;20255;-76
2022/04/09 01:30:28;;;;;;;10.93;2.55;;;;;;;;;;5134474;27;20098;-75
2022/04/09 01:32:53;;;;;;;5.72;2.20;;;;;;;;;;5134287;27;20090;-76
2022/04/09 01:35:18;;;;;;;6.47;2.60;;;;;;;;;;5133484;27;20050;-75
2022/04/09 01:37:44;;;;;;;9.32;2.72;;;;;;;;;;5134526;27;20990;-75
2022/04/09 01:40:10;;;;;;;7.85;3.13;;;;;;;;;;5134244;27;20463;-73
2022/04/09 01:42:36;;;;;;;7.22;2.30;;;;;;;;;;5134607;27;20030;-76
2022/04/09 01:45:02;;;;;;;6.75;3.17;;;;;;;;;;5134355;27;20015;-74
2022/04/09 01:47:27;;;;;;;8.05;2.80;;;;;;;;;;5134418;27;20384;-76
2022/04/09 01:49:53;;;;;;;7.75;2.50;;;;;;;;;;5134328;27;20015;-76
2022/04/09 01:52:18;;;;;;;8.68;2.78;;;;;;;;;;5134902;27;20041;-73
2022/04/09 01:54:44;;;;;;;6.37;2.20;;;;;;;;;;5132334;27;20015;-75
2022/04/09 01:57:09;;;;;;;7.40;2.22;;;;;;;;;;5137223;27;20409;-77
2022/04/09 01:59:35;;;;;;;7.13;3.33;;;;;;;;;;5135339;27;21013;-74
2022/04/09 02:02:00;;;;;;;11.60;3.28;;;;;;;;;;5134380;27;20046;-75
2022/04/09 02:04:26;;;;;;;8.48;2.10;;;;;;;;;;5134350;27;20016;-74
2022/04/09 02:06:51;;;;;;;6.65;2.53;;;;;;;;;;5134269;27;20031;-75
2022/04/09 02:09:17;;;;;;;6.47;2.13;;;;;;;;;;5133879;27;20024;-75
2022/04/09 02:11:42;;;;;;;6.23;2.10;;;;;;;;;;5134125;27;20059;-75
2022/04/09 02:14:08;;;;;;;10.40;2.45;;;;;;;;;;5132709;27;20259;-76
2022/04/09 02:16:33;;;;;;;6.40;2.53;;;;;;;;;;5132712;27;20078;-75
2022/04/09 02:18:59;;;;;;;7.30;2.35;;;;;;;;;;5132567;27;20023;-74
2022/04/09 02:21:24;;;;;;;8.82;2.40;;;;;;;;;;5134185;27;20066;-74
2022/04/09 02:23:50;;;;;;;8.18;2.88;;;;;;;;;;5133595;27;20472;-74
2022/04/09 02:26:15;;;;;;;6.87;3.27;;;;;;;;;;5131933;27;20071;-75
2022/04/09 02:28:41;;;;;;;10.20;2.63;;;;;;;;;;5132243;27;20239;-75
2022/04/09 02:31:06;;;;;;;8.23;2.35;;;;;;;;;;5132955;27;20263;-75
2022/04/09 02:33:31;;;;;;;5.80;2.42;;;;;;;;;;5131798;27;20042;-76
2022/04/09 02:35:57;;;;;;;8.50;2.87;;;;;;;;;;5133309;27;20014;-75
2022/04/09 02:38:24;;;;;;;10.57;2.83;;;;;;;;;;5133302;27;20270;-75
2022/04/09 02:40:49;;;;;;;6.03;2.13;;;;;;;;;;5133081;27;20122;-75
2022/04/09 02:43:14;;;;;;;7.43;3.03;;;;;;;;;;5132052;27;20110;-76
2022/04/09 02:45:40;;;;;;;11.60;2.60;;;;;;;;;;5132130;27;20023;-75
2022/04/09 02:48:05;;;;;;;6.40;2.60;;;;;;;;;;5133414;27;20106;-74
2022/04/09 02:50:30;;;;;;;8.63;2.33;;;;;;;;;;5133287;27;20034;-74
2022/04/09 02:52:56;;;;;;;5.70;3.40;;;;;;;;;;5135695;27;20488;-74
2022/04/09 02:55:21;;;;;;;6.57;2.10;;;;;;;;;;5131990;27;20030;-74
2022/04/09 02:57:46;;;;;;;5.75;2.40;;;;;;;;;;5133299;27;20019;-75
2022/04/09 03:00:12;;;;;;;6.38;3.00;;;;;;;;;;5131677;27;20031;-74
2022/04/09 03:02:38;;;;;;;8.27;2.70;;;;;;;;;;5133375;27;20122;-74
2022/04/09 03:05:04;;;;;;;7.68;2.92;;;;;;;;;;5133216;27;21553;-73
2022/04/09 03:07:29;;;;;;;5.90;2.30;;;;;;;;;;5130868;27;20019;-74
2022/04/09 03:09:54;;;;;;;12.57;2.83;;;;;;;;;;5131470;27;20030;-74
2022/04/09 03:12:20;;;;;;;7.65;2.33;;;;;;;;;;5133291;27;20091;-74
2022/04/09 03:14:45;;;;;;;10.98;2.40;;;;;;;;;;5132665;27;20858;-73
2022/04/09 03:17:11;;;;;;;6.70;2.53;;;;;;;;;;5132773;27;20022;-74
2022/04/09 03:19:36;;;;;;;10.23;2.60;;;;;;;;;;5131317;27;20062;-73
2022/04/09 03:22:01;;;;;;;4.87;2.23;;;;;;;;;;5132583;27;20487;-73
2022/04/09 03:24:27;;;;;;;6.15;2.22;;;;;;;;;;5134237;27;20747;-74
2022/04/09 03:26:52;;;;;;;9.20;2.67;;;;;;;;;;5138204;27;20548;-77
2022/04/09 03:29:17;;;;;;;7.45;2.67;;;;;;;;;;5135291;27;20026;-74
2022/04/09 03:31:42;;;;;;;6.67;3.50;;;;;;;;;;5131393;27;20106;-74
2022/04/09 03:34:08;;;;;;;6.15;1.98;;;;;;;;;;5130799;27;20668;-76
2022/04/09 03:36:33;;;;;;;7.57;2.00;;;;;;;;;;5132605;27;20023;-75
2022/04/09 03:38:58;;;;;;;8.53;2.90;;;;;;;;;;5131269;27;20018;-75
2022/04/09 03:41:23;;;;;;;5.47;2.75;;;;;;;;;;5132799;27;20310;-77
2022/04/09 03:43:50;;;;;;;5.32;2.40;;;;;;;;;;5132798;27;20015;-76
2022/04/09 03:46:16;;;;;;;9.25;2.50;;;;;;;;;;5132595;27;20072;-75
2022/04/09 03:48:41;;;;;;;8.75;2.55;;;;;;;;;;5135469;27;20023;-76
2022/04/09 03:51:07;;;;;;;5.90;2.15;;;;;;;;;;5130929;27;20030;-74
2022/04/09 03:53:32;;;;;;;7.65;2.42;;;;;;;;;;5132180;27;20043;-77
2022/04/09 03:55:57;;;;;;;9.40;2.28;;;;;;;;;;5130652;27;20026;-76
2022/04/09 03:58:23;;;;;;;10.03;2.73;;;;;;;;;;5131801;27;20026;-74
2022/04/09 04:00:49;;;;;;;14.65;3.00;;;;;;;;;;5125525;27;20355;-74
2022/04/09 04:03:14;;;;;;;6.75;2.40;;;;;;;;;;5112459;28;20019;-78
2022/04/09 04:05:40;;;;;;;11.80;2.60;;;;;;;;;;5113821;27;20016;-76
2022/04/09 04:08:05;;;;;;;6.78;2.22;;;;;;;;;;5110229;28;20011;-75
2022/04/09 04:10:32;;;;;;;6.53;2.53;;;;;;;;;;5111481;28;20042;-76
2022/04/09 04:12:57;;;;;;;7.45;2.63;;;;;;;;;;5110255;28;20020;-75
2022/04/09 04:15:22;;;;;;;7.53;2.57;;;;;;;;;;5111376;28;20505;-75
2022/04/09 04:17:49;;;;;;;7.00;2.83;;;;;;;;;;5121782;27;20746;-73
2022/04/09 04:20:14;;;;;;;6.70;2.40;;;;;;;;;;5109781;28;20263;-77
2022/04/09 04:22:40;;;;;;;6.93;2.50;;;;;;;;;;5118138;28;20019;-75
2022/04/09 04:25:05;;;;;;;4.82;2.30;;;;;;;;;;5131572;28;20354;-75
2022/04/09 04:27:31;;;;;;;6.30;2.75;;;;;;;;;;5130485;28;20030;-76
2022/04/09 04:30:00;;;;;;;9.55;2.88;;;;;;;;;;5131549;27;20015;-75
2022/04/09 04:32:25;;;;;;;6.93;2.53;;;;;;;;;;5131547;27;20058;-75
2022/04/09 04:34:50;;;;;;;3.97;2.13;;;;;;;;;;5124258;27;20096;-76
2022/04/09 04:37:16;;;;;;;7.33;2.60;;;;;;;;;;5111084;28;20027;-82
2022/04/09 04:39:41;;;;;;;9.33;2.47;;;;;;;;;;5111066;28;20252;-80
2022/04/09 04:42:07;;;;;;;7.43;2.67;;;;;;;;;;5112912;28;20287;-81
2022/04/09 04:44:32;;;;;;;5.78;2.38;;;;;;;;;;5113565;28;20255;-75
2022/04/09 04:46:58;;;;;;;7.13;2.05;;;;;;;;;;5111018;28;20012;-77
2022/04/09 04:49:23;;;;;;;11.83;2.77;;;;;;;;;;5110051;28;20024;-78
2022/04/09 04:51:48;;;;;;;7.27;2.20;;;;;;;;;;5111192;28;20737;-82
2022/04/09 04:54:13;;;;;;;6.45;2.60;;;;;;;;;;5111297;28;20302;-76
2022/04/09 04:56:38;;;;;;;7.83;2.53;;;;;;;;;;5110411;28;20028;-77
2022/04/09 04:59:04;;;;;;;5.70;2.10;;;;;;;;;;5110391;28;20252;-77
2022/04/09 05:01:29;;;;;;;5.63;2.33;;;;;;;;;;5111515;28;20371;-76
2022/04/09 05:03:54;;;;;;;9.52;2.53;;;;;;;;;;5109920;28;20012;-78
2022/04/09 05:06:20;;;;;;;10.00;2.88;;;;;;;;;;5111471;28;20095;-75
2022/04/09 05:08:45;;;;;;;8.80;2.90;;;;;;;;;;5110477;28;20125;-79
2022/04/09 05:11:11;;;;;;;7.68;2.53;;;;;;;;;;5116570;28;20039;-76
2022/04/09 05:13:36;;;;;;;7.93;2.77;;;;;;;;;;5132505;28;20399;-77
2022/04/09 05:16:01;;;;;;;10.63;2.60;;;;;;;;;;5130169;28;20644;-83
2022/04/09 05:18:27;;;;;;;6.40;2.10;;;;;;;;;;5131988;27;20019;-75
2022/04/09 05:20:52;;;;;;;8.45;2.67;;;;;;;;;;5135952;27;20023;-75
2022/04/09 05:23:17;;;;;;;7.93;2.80;;;;;;;;;;5133041;28;20026;-76
2022/04/09 05:25:42;;;;;;;6.47;2.47;;;;;;;;;;5131728;28;20011;-75
2022/04/09 05:28:08;;;;;;;7.38;3.40;;;;;;;;;;5131655;28;20669;-76
2022/04/09 05:30:33;;;;;;;10.57;3.40;;;;;;;;;;5134552;27;20098;-76
2022/04/09 05:32:59;;;;;;;20.52;9.00;;;;;;;;;;5136513;27;20091;-77
2022/04/09 05:35:24;;;;;;;5.43;2.40;;;;;;;;;;5136908;27;20031;-75
2022/04/09 05:37:51;;;;;;;10.77;2.83;;;;;;;;;;5140569;27;20468;-76
2022/04/09 05:40:16;;;;;;;11.43;4.32;;;;;;;;;;5141162;27;20589;-78
2022/04/09 05:42:42;;;;;;;7.47;2.72;;;;;;;;;;5136606;27;20038;-78
2022/04/09 05:45:07;;;;;;;33.60;14.50;;;;;;;;;;5133941;27;20094;-75
2022/04/09 05:47:32;;;;;;;7.00;3.22;;;;;;;;;;5134983;27;20539;-75
2022/04/09 05:49:58;;;;;;;14.45;6.22;;;;;;;;;;5133209;27;20019;-74
2022/04/09 05:52:24;;;;;;;8.40;3.50;;;;;;;;;;5134429;27;20488;-75
2022/04/09 05:54:49;;;;;;;12.50;3.83;;;;;;;;;;5134202;27;20019;-75
2022/04/09 05:57:14;;;;;;;14.68;7.05;;;;;;;;;;5134196;27;20015;-81
2022/04/09 05:59:40;;;;;;;6.78;2.70;;;;;;;;;;5134518;27;20023;-74
2022/04/09 06:02:05;;;;;;;12.40;3.13;;;;;;;;;;5116655;27;20397;-75
2022/04/09 06:04:31;;;;;;;11.43;2.88;;;;;;;;;;5113810;28;20384;-74
2022/04/09 06:06:56;;;;;;;9.63;2.80;;;;;;;;;;5113587;28;20108;-78
2022/04/09 06:09:21;;;;;;;7.00;2.35;;;;;;;;;;5113632;28;20260;-73
2022/04/09 06:11:47;;;;;;;7.27;2.67;;;;;;;;;;5113265;28;20015;-74
2022/04/09 06:14:13;;;;;;;4.30;2.40;;;;;;;;;;5113941;28;20339;-74
2022/04/09 06:16:40;;;;;;;9.68;2.72;;;;;;;;;;5100389;28;20056;-85
2022/04/09 06:19:06;;;;;;;13.73;3.25;;;;;;;;;;5133716;28;20080;-85
2022/04/09 06:21:33;;;;;;;6.55;3.08;;;;;;;;;;5133032;28;20035;-84
2022/04/09 06:23:58;;;;;;;11.05;2.85;;;;;;;;;;5131104;27;20007;-85
2022/04/09 06:26:23;;;;;;;7.40;2.60;;;;;;;;;;5127105;28;20083;-84
2022/04/09 06:28:48;;;;;;;8.63;2.70;;;;;;;;;;5121085;28;20346;-88
2022/04/09 06:31:14;;;;;;;6.47;2.97;;;;;;;;;;5120173;28;20314;-81
2022/04/09 06:33:39;;;;;;;7.40;2.67;;;;;;;;;;5123712;28;20260;-88
2022/04/09 06:36:04;;;;;;;6.83;3.03;;;;;;;;;;5123258;28;20767;-87
2022/04/09 06:38:31;;;;;;;4.43;2.13;;;;;;;;;;5122352;28;20314;-82
2022/04/09 06:40:56;;;;;;;4.88;2.47;;;;;;;;;;5122705;28;20472;-87
2022/04/09 06:43:21;;;;;;;8.75;2.55;;;;;;;;;;5116341;28;20031;-82
2022/04/09 06:45:46;;;;;;;6.60;2.40;;;;;;;;;;5115875;28;20026;-83
2022/04/09 06:48:12;;;;;;;14.65;3.38;;;;;;;;;;5119655;28;20256;-85
2022/04/09 06:50:37;;;;;;;9.00;3.03;;;;;;;;;;5124042;28;20020;-82
2022/04/09 06:53:05;;;;;;;7.10;2.30;;;;;;;;;;5122635;27;20339;-81
2022/04/09 06:55:30;;;;;;;6.35;2.72;;;;;;;;;;5125590;27;20255;-86
2022/04/09 06:58:02;;;;;;;4.85;2.28;;;;;;;;;;5126552;27;20023;-80
2022/04/09 07:00:27;;;;;;;5.93;2.85;;;;;;;;;;5127591;27;20027;-83
2022/04/09 07:02:53;;;;;;;7.10;3.08;;;;;;;;;;5123759;27;20023;-83
2022/04/09 07:05:18;;;;;;;5.87;2.37;;;;;;;;;;5125490;27;20030;-80
2022/04/09 07:07:46;;;;;;;8.95;2.30;;;;;;;;;;5133523;27;20263;-87
2022/04/09 07:10:11;;;;;;;7.45;2.55;;;;;;;;;;5130021;27;20022;-84
2022/04/09 07:12:37;;;;;;;10.35;2.92;;;;;;;;;;5141896;27;20015;-85
2022/04/09 07:15:03;;;;;;;8.07;2.85;;;;;;;;;;5138635;27;20130;-87
2022/04/09 07:17:29;;;;;;;10.60;4.95;;;;;;;;;;5134713;27;20019;-80
2022/04/09 07:19:58;;;;;;;20.77;9.82;;;;;;;;;;5140562;27;20023;-85
2022/04/09 07:22:24;;;;;;;8.68;2.92;;;;;;;;;;5146846;27;20027;-82
2022/04/09 07:24:49;;;;;;;8.35;2.33;;;;;;;;;;5137047;27;20134;-80
2022/04/09 07:27:14;;;;;;;7.57;2.53;;;;;;;;;;5141269;27;20027;-82
2022/04/09 07:29:39;;;;;;;5.67;2.30;;;;;;;;;;5124820;27;20015;-83
2022/04/09 07:32:05;;;;;;;11.27;3.90;;;;;;;;;;5129368;28;20264;-84
2022/04/09 07:34:30;;;;;;;6.20;2.58;;;;;;;;;;5127006;28;20348;-87
2022/04/09 07:36:55;;;;;;;6.28;2.70;;;;;;;;;;5114462;28;20024;-83
2022/04/09 07:39:21;;;;;;;7.67;2.40;;;;;;;;;;5121144;27;20018;-85
2022/04/09 07:41:46;;;;;;;8.82;2.70;;;;;;;;;;5140035;27;20271;-78
2022/04/09 07:44:11;;;;;;;9.53;3.10;;;;;;;;;;5122404;27;20099;-77
2022/04/09 07:46:36;;;;;;;6.88;2.58;;;;;;;;;;5137891;27;20267;-88
2022/04/09 07:49:02;;;;;;;7.63;2.78;;;;;;;;;;5128454;27;20018;-84
2022/04/09 07:51:27;;;;;;;9.50;2.90;;;;;;;;;;5128605;27;20023;-78
2022/04/09 07:53:52;;;;;;;7.32;2.20;;;;;;;;;;5125407;27;20060;-80
2022/04/09 07:56:17;;;;;;;10.20;3.63;;;;;;;;;;5122444;27;20069;-77
2022/04/09 07:58:43;;;;;;;14.32;3.17;;;;;;;;;;5122682;27;20021;-83
2022/04/09 08:01:08;;;;;;;9.02;2.42;;;;;;;;;;5124664;27;20419;-74
2022/04/09 08:03:33;;;;;;;3.85;2.55;;;;;;;;;;5119607;27;20107;-75
2022/04/09 08:05:59;;;;;;;8.43;3.20;;;;;;;;;;5120220;27;20022;-76
2022/04/09 08:08:24;;;;;;;5.60;2.70;;;;;;;;;;5118528;27;20342;-75
2022/04/09 08:10:49;;;;;;;8.02;2.70;;;;;;;;;;5124201;27;20110;-78
2022/04/09 08:13:15;;;;;;;6.40;2.67;;;;;;;;;;5123997;27;20023;-83
2022/04/09 08:15:40;;;;;;;4.88;2.38;;;;;;;;;;5118429;28;20122;-76
2022/04/09 08:18:06;;;;;;;9.55;2.63;;;;;;;;;;5123902;27;20024;-76
2022/04/09 08:20:31;;;;;;;5.22;2.17;;;;;;;;;;5115697;28;20026;-76
2022/04/09 08:22:56;;;;;;;6.28;2.72;;;;;;;;;;5119624;27;20087;-75
2022/04/09 08:25:22;;;;;;;5.28;2.10;;;;;;;;;;5117684;28;20019;-77
2022/04/09 08:27:51;;;;;;;4.68;2.17;;;;;;;;;;5110005;28;20057;-75
2022/04/09 08:30:16;;;;;;;7.85;2.60;;;;;;;;;;5116768;27;20022;-75
2022/04/09 08:32:42;;;;;;;6.20;2.55;;;;;;;;;;5118419;28;20023;-76
2022/04/09 08:35:07;;;;;;;8.48;3.65;;;;;;;;;;5121945;28;20054;-75
2022/04/09 08:37:32;;;;;;;8.57;2.97;;;;;;;;;;5119444;28;20020;-74
2022/04/09 08:39:58;;;;;;;3.53;2.15;;;;;;;;;;5117901;28;20023;-74
2022/04/09 08:42:28;;;;;;;4.85;1.95;;;;;;;;;;5119846;28;20118;-75
2022/04/09 08:44:53;;;;;;;8.02;2.20;;;;;;;;;;5118784;28;20030;-74
2022/04/09 08:47:18;;;;;;;8.75;2.45;;;;;;;;;;5118784;27;20019;-75
2022/04/09 08:49:45;;;;;;;6.80;2.35;;;;;;;;;;5118671;28;20019;-73
2022/04/09 08:52:11;;;;;;;7.65;2.67;;;;;;;;;;5118125;28;20019;-72
2022/04/09 08:54:37;;;;;;;6.38;2.50;;;;;;;;;;5110252;28;20071;-73
2022/04/09 08:57:02;;;;;;;7.95;2.55;;;;;;;;;;5120597;27;20096;-73
2022/04/09 08:59:28;;;;;;;8.15;2.50;;;;;;;;;;5114941;28;20019;-73
2022/04/09 09:01:53;;;;;;;9.02;2.97;;;;;;;;;;5114988;28;20023;-74
2022/04/09 09:04:20;;;;;;;9.10;2.33;;;;;;;;;;5118723;27;21041;-76
2022/04/09 09:06:46;;;;;;;12.40;3.22;;;;;;;;;;5121700;27;20020;-74
2022/04/09 09:09:25;;;;;;;7.10;2.45;;;;;;;;;;5116139;27;20354;-75
2022/04/09 09:11:50;;;;;;;4.93;2.60;;;;;;;;;;5119251;27;20023;-74
2022/04/09 09:14:27;;;;;;;9.77;3.00;;;;;;;;;;5112997;27;20038;-75
2022/04/09 09:16:54;;;;;;;7.40;2.72;;;;;;;;;;5133224;27;20279;-76
2022/04/09 09:19:20;;;;;;;7.43;2.55;;;;;;;;;;5119927;27;20433;-75
2022/04/09 09:21:59;;;;;;;5.22;2.10;;;;;;;;;;5126485;27;20023;-76
2022/04/09 09:24:24;;;;;;;7.20;2.13;;;;;;;;;;5108362;27;20011;-71
2022/04/09 09:26:59;;;;;;;5.80;1.63;;;;;;;;;;5112249;27;20376;-71
2022/04/09 09:29:26;;;;;;;;;;;;;;;;;;5129238;27;20346;-72
2022/04/09 09:31:52;;;;;;;3.63;1.85;;;;;;;;;;5112219;27;20011;-71
2022/04/09 09:34:21;;;;;;;4.68;1.65;;;;;;;;;;5124823;27;20110;-71
2022/04/09 09:36:47;;;;;;;1.65;1.23;;;;;;;;;;5109879;27;20689;-72
2022/04/09 09:39:13;;;;;;;2.17;1.30;;;;;;;;;;5119841;27;20019;-72
2022/04/09 09:41:52;;;;;;;2.10;1.42;;;;;;;;;;5111469;27;20023;-73
2022/04/09 09:44:18;;;;;;;3.97;1.90;;;;;;;;;;5118410;27;20354;-76
2022/04/09 09:46:45;;;;;;;4.40;1.58;;;;;;;;;;5123824;27;20030;-76
2022/04/09 09:49:11;;;;;;;6.38;1.52;;;;;;;;;;5122888;27;20430;-75
2022/04/09 09:51:36;;;;;;;1.50;1.40;;;;;;;;;;5114824;27;20031;-78
2022/04/09 09:54:05;;;;;;;1.98;1.40;;;;;;;;;;5119687;27;20027;-80
2022/04/09 09:56:39;;;;;;;3.00;1.40;;;;;;;;;;5116780;27;20019;-77
2022/04/09 09:59:08;;;;;;;4.70;1.73;;;;;;;;;;5130819;27;20020;-76
2022/04/09 10:01:43;;;;;;;5.68;1.45;;;;;;;;;;5128469;27;20038;-76
2022/04/09 10:04:11;;;;;;;2.05;1.40;;;;;;;;;;5111070;27;20016;-76
2022/04/09 10:06:38;;;;;;;4.05;1.58;;;;;;;;;;5111640;28;20039;-76
2022/04/09 10:09:07;;;;;;;3.55;1.88;;;;;;;;;;5129901;27;20058;-76
2022/04/09 10:11:36;;;;;;;1.73;1.60;;;;;;;;;;5119685;27;20443;-81
2022/04/09 10:14:05;;;;;;;1.60;1.50;;;;;;;;;;5122955;27;20468;-73
2022/04/09 10:16:33;;;;;;;1.65;1.50;;;;;;;;;;5126324;27;20047;-75
2022/04/09 10:18:59;;;;;;;2.53;1.75;;;;;;;;;;5119695;27;20023;-75
2022/04/09 10:21:25;;;;;;;2.17;1.70;;;;;;;;;;5121156;27;20023;-73
2022/04/09 10:23:52;;;;;;;2.60;2.00;;;;;;;;;;5115112;27;20543;-74
2022/04/09 10:26:17;;;;;;;1.83;1.60;;;;;;;;;;5124169;27;20030;-74
2022/04/09 10:28:44;;;;;;;2.22;1.70;;;;;;;;;;5116478;27;20512;-75
2022/04/09 10:31:21;;;;;;;3.28;1.85;;;;;;;;;;5128647;27;20026;-75
2022/04/09 10:33:56;;;;;;;1.90;1.45;;;;;;;;;;5123076;27;20042;-74
2022/04/09 10:36:52;;;;;;;2.33;1.67;;;;;;;;;;5125520;27;20024;-75
2022/04/09 10:39:23;;;;;;;1.73;1.50;;;;;;;;;;5102163;27;20015;-76
2022/04/09 10:41:51;;;;;;;1.63;1.40;;;;;;;;;;5128711;27;20294;-74
2022/04/09 10:44:35;;;;;;;1.88;1.48;;;;;;;;;;5126071;27;20020;-77
2022/04/09 10:47:03;;;;;;;3.05;1.70;;;;;;;;;;5118463;27;20422;-76
2022/04/09 10:49:30;;;;;;;2.40;1.75;;;;;;;;;;5120473;27;20011;-75
2022/04/09 10:52:11;;;;;;;1.73;1.38;;;;;;;;;;5118663;27;20031;-74
2022/04/09 10:54:36;;;;;;;2.10;1.70;;;;;;;;;;5120652;27;20016;-73
2022/04/09 10:57:09;;;;;;;4.47;2.10;;;;;;;;;;5121528;27;20023;-76
2022/04/09 10:59:38;;;;;;;1.80;1.58;;;;;;;;;;5118995;27;20012;-74
2022/04/09 11:02:04;;;;;;;4.80;1.70;;;;;;;;;;5116473;27;20691;-74
2022/04/09 11:04:30;;;;;;;1.60;1.50;;;;;;;;;;5115733;27;20030;-74
2022/04/09 11:07:16;;;;;;;1.70;1.50;;;;;;;;;;5127033;27;20019;-74
2022/04/09 11:09:42;;;;;;;1.58;1.45;;;;;;;;;;5119367;27;20098;-76
2022/04/09 11:12:07;;;;;;;1.50;1.40;;;;;;;;;;5120721;27;20555;-79
2022/04/09 11:14:49;;;;;;;1.50;1.40;;;;;;;;;;5126490;27;20022;-75
2022/04/09 11:17:17;;;;;;;1.88;1.58;;;;;;;;;;5114848;27;20051;-76
2022/04/09 11:19:43;;;;;;;2.00;1.60;;;;;;;;;;5124001;27;20033;-72
2022/04/09 11:22:09;;;;;;;1.80;1.60;;;;;;;;;;5122824;27;20023;-74
2022/04/09 11:24:39;;;;;;;2.22;1.67;;;;;;;;;;5119422;27;20047;-75
2022/04/09 11:27:04;;;;;;;2.10;1.77;;;;;;;;;;5113588;27;20097;-72
2022/04/09 11:29:33;;;;;;;3.17;2.03;;;;;;;;;;5120455;27;20096;-75
2022/04/09 11:31:59;;;;;;;3.83;2.28;;;;;;;;;;5114212;27;20026;-75
2022/04/09 11:34:25;;;;;;;2.85;1.77;;;;;;;;;;5124734;27;20015;-75
2022/04/09 11:36:52;;;;;;;2.80;1.80;;;;;;;;;;5114764;27;20012;-75
2022/04/09 11:39:17;;;;;;;2.42;1.60;;;;;;;;;;5128406;27;20096;-74
2022/04/09 11:41:46;;;;;;;3.58;1.95;;;;;;;;;;5109794;28;20063;-74
2022/04/09 11:44:25;;;;;;;2.92;1.90;;;;;;;;;;5122987;27;20102;-69
2022/04/09 11:46:50;;;;;;;2.40;1.63;;;;;;;;;;5113960;27;20068;-69
2022/04/09 11:49:18;;;;;;;2.58;1.70;;;;;;;;;;5126105;27;20027;-67
2022/04/09 11:51:52;;;;;;;2.95;1.58;;;;;;;;;;5120329;27;20076;-73
2022/04/09 11:54:17;;;;;;;2.25;1.60;;;;;;;;;;5116455;27;20495;-73
2022/04/09 11:56:43;;;;;;;3.00;1.80;;;;;;;;;;5115974;27;20039;-74
2022/04/09 11:59:13;;;;;;;1.98;1.60;;;;;;;;;;5117770;27;20035;-75
2022/04/09 12:01:38;;;;;;;2.70;1.65;;;;;;;;;;5119287;27;20076;-74
2022/04/09 12:04:03;;;;;;;3.15;1.63;;;;;;;;;;5117873;27;20027;-76
2022/04/09 12:06:29;;;;;;;2.42;1.60;;;;;;;;;;5114757;27;20118;-79
2022/04/09 12:08:54;;;;;;;3.17;1.80;;;;;;;;;;5116154;27;20042;-76
2022/04/09 12:11:20;;;;;;;3.70;2.00;;;;;;;;;;5123330;27;20054;-75
2022/04/09 12:13:46;;;;;;;3.13;1.80;;;;;;;;;;5120955;27;20027;-75
2022/04/09 12:16:15;;;;;;;3.78;1.95;;;;;;;;;;5120757;27;20527;-75
2022/04/09 12:18:41;;;;;;;1.60;1.40;;;;;;;;;;5113418;28;20019;-75
2022/04/09 12:21:19;;;;;;;1.20;1.10;;;;;;;;;;5115303;28;20035;-74
2022/04/09 12:23:45;;;;;;;1.80;1.40;;;;;;;;;;5123065;27;20015;-76
2022/04/09 12:26:23;;;;;;;3.17;1.40;;;;;;;;;;5114480;28;20118;-75
2022/04/09 12:29:04;;;;;;;2.10;1.35;;;;;;;;;;5121482;28;20015;-75
2022/04/09 12:31:29;;;;;;;1.60;1.27;;;;;;;;;;5113508;28;20069;-72
2022/04/09 12:33:58;;;;;;;4.70;1.58;;;;;;;;;;5119529;28;20011;-73
2022/04/09 12:36:23;;;;;;;3.25;1.92;;;;;;;;;;5117320;27;20416;-73
2022/04/09 12:38:48;;;;;;;3.40;1.80;;;;;;;;;;5121138;27;20106;-74
2022/04/09 12:41:13;;;;;;;2.13;1.50;;;;;;;;;;5122911;27;20492;-75
2022/04/09 12:43:41;;;;;;;1.85;1.45;;;;;;;;;;5113661;27;20456;-73
2022/04/09 12:46:08;;;;;;;2.60;1.60;;;;;;;;;;5114082;27;20023;-73
2022/04/09 12:48:37;;;;;;;1.45;1.33;;;;;;;;;;5115135;27;20072;-74
2022/04/09 12:51:02;;;;;;;3.10;2.60;;;;;;;;;;5130785;27;20031;-74
2022/04/09 12:53:28;;;;;;;2.65;2.05;;;;;;;;;;5119852;27;20472;-73
2022/04/09 12:55:53;;;;;;;2.42;2.08;;;;;;;;;;5125737;27;20036;-73
2022/04/09 12:58:18;;;;;;;2.30;1.90;;;;;;;;;;5126695;27;20131;-74
2022/04/09 13:00:43;;;;;;;3.05;2.10;;;;;;;;;;5131456;27;20019;-74
2022/04/09 13:03:09;;;;;;;3.85;2.13;;;;;;;;;;5113818;28;20476;-74
2022/04/09 13:05:35;;;;;;;2.67;2.10;;;;;;;;;;5119704;27;21136;-73
2022/04/09 13:08:00;;;;;;;2.50;2.00;;;;;;;;;;5124227;27;20031;-74
2022/04/09 13:10:25;;;;;;;2.40;2.00;;;;;;;;;;5126497;27;21506;-75
2022/04/09 13:12:50;;;;;;;2.03;1.80;;;;;;;;;;5117415;27;20033;-75
2022/04/09 13:15:16;;;;;;;2.10;1.88;;;;;;;;;;5131210;27;20027;-74
2022/04/09 13:17:41;;;;;;;2.63;1.90;;;;;;;;;;5121237;27;20164;-74
2022/04/09 13:20:07;;;;;;;3.25;2.10;;;;;;;;;;5127028;27;20007;-74
2022/04/09 13:22:33;;;;;;;3.03;2.17;;;;;;;;;;5118242;27;20400;-75
2022/04/09 13:24:58;;;;;;;2.53;1.90;;;;;;;;;;5115159;27;20008;-74
2022/04/09 13:27:24;;;;;;;2.92;2.40;;;;;;;;;;5129344;27;20110;-76
2022/04/09 13:29:49;;;;;;;2.92;2.50;;;;;;;;;;5122147;27;20055;-74
2022/04/09 13:32:14;;;;;;;2.90;2.17;;;;;;;;;;5121851;27;20022;-75
2022/04/09 13:34:40;;;;;;;2.70;2.40;;;;;;;;;;5129013;27;20027;-75
2022/04/09 13:37:05;;;;;;;5.43;2.25;;;;;;;;;;5117070;27;20465;-74
2022/04/09 13:39:30;;;;;;;2.97;2.40;;;;;;;;;;5126601;27;20064;-75
2022/04/09 13:41:56;;;;;;;2.25;1.92;;;;;;;;;;5122802;27;20138;-75
2022/04/09 13:44:22;;;;;;;2.42;2.00;;;;;;;;;;5120652;27;20076;-74
2022/04/09 13:46:47;;;;;;;3.67;2.47;;;;;;;;;;5113513;28;20031;-75
2022/04/09 13:49:13;;;;;;;2.03;1.83;;;;;;;;;;5130194;27;20022;-74
2022/04/09 13:51:38;;;;;;;3.38;2.30;;;;;;;;;;5120491;27;20033;-74
2022/04/09 13:54:03;;;;;;;3.08;2.42;;;;;;;;;;5123718;27;21614;-76
2022/04/09 13:56:29;;;;;;;4.72;2.80;;;;;;;;;;5119485;27;20476;-73
2022/04/09 13:58:55;;;;;;;3.42;2.30;;;;;;;;;;5111802;27;20019;-73
2022/04/09 14:01:20;;;;;;;4.38;2.20;;;;;;;;;;5126640;27;20019;-72
2022/04/09 14:03:45;;;;;;;2.80;2.30;;;;;;;;;;5113037;28;20075;-74
2022/04/09 14:06:10;;;;;;;2.75;2.15;;;;;;;;;;5118243;27;20456;-72
2022/04/09 14:08:36;;;;;;;3.50;2.40;;;;;;;;;;5118712;27;20148;-73
2022/04/09 14:11:02;;;;;;;3.28;2.70;;;;;;;;;;5129727;27;20515;-74
2022/04/09 14:13:27;;;;;;;3.85;2.50;;;;;;;;;;5117242;27;20071;-73
2022/04/09 14:15:52;;;;;;;3.67;2.42;;;;;;;;;;5124454;27;20044;-74
2022/04/09 14:18:18;;;;;;;5.35;3.05;;;;;;;;;;5113159;27;20019;-73
2022/04/09 14:20:43;;;;;;;5.32;2.80;;;;;;;;;;5114035;27;20027;-75
2022/04/09 14:23:08;;;;;;;4.53;2.00;;;;;;;;;;5127266;27;20031;-76
2022/04/09 14:25:34;;;;;;;8.55;3.35;;;;;;;;;;5120724;27;20603;-76
2022/04/09 14:27:59;;;;;;;2.92;2.30;;;;;;;;;;5117997;27;20027;-77
2022/04/09 14:30:25;;;;;;;2.80;1.92;;;;;;;;;;5127040;27;20007;-74
2022/04/09 14:32:50;;;;;;;3.50;2.58;;;;;;;;;;5116129;27;20004;-74
2022/04/09 14:35:17;;;;;;;3.00;2.45;;;;;;;;;;5108782;27;20114;-75